sensor_id;sensor_type;location;lat;lon;timestamp;temperature;humidity
36710;DHT22;22694;51.040;3.684;2022-08-24T00:01:04;22.40;85.20
36710;DHT22;22694;51.040;3.684;2022-08-24T00:03:31;22.30;85.20
36710;DHT22;22694;51.040;3.684;2022-08-24T00:05:56;22.30;85.20
36710;DHT22;22694;51.040;3.684;2022-08-24T00:08:22;22.30;85.30
36710;DHT22;22694;51.040;3.684;2022-08-24T00:10:48;22.30;85.40
36710;DHT22;22694;51.040;3.684;2022-08-24T00:13:14;22.20;85.40
36710;DHT22;22694;51.040;3.684;2022-08-24T00:15:41;22.20;85.40
36710;DHT22;22694;51.040;3.684;2022-08-24T00:18:07;22.20;85.60
36710;DHT22;22694;51.040;3.684;2022-08-24T00:20:33;22.20;85.60
36710;DHT22;22694;51.040;3.684;2022-08-24T00:22:59;22.20;85.60
36710;DHT22;22694;51.040;3.684;2022-08-24T00:25:25;22.20;85.70
36710;DHT22;22694;51.040;3.684;2022-08-24T00:27:51;22.20;85.60
36710;DHT22;22694;51.040;3.684;2022-08-24T00:30:19;22.10;85.70
36710;DHT22;22694;51.040;3.684;2022-08-24T00:32:46;22.10;85.90
36710;DHT22;22694;51.040;3.684;2022-08-24T00:35:13;22.10;86.00
36710;DHT22;22694;51.040;3.684;2022-08-24T00:37:39;22.00;86.10
36710;DHT22;22694;51.040;3.684;2022-08-24T00:40:13;22.10;86.40
36710;DHT22;22694;51.040;3.684;2022-08-24T00:42:39;22.00;86.40
36710;DHT22;22694;51.040;3.684;2022-08-24T00:45:08;22.00;86.40
36710;DHT22;22694;51.040;3.684;2022-08-24T00:50:16;22.00;86.30
36710;DHT22;22694;51.040;3.684;2022-08-24T00:52:55;21.90;86.20
36710;DHT22;22694;51.040;3.684;2022-08-24T00:55:29;21.90;86.20
36710;DHT22;22694;51.040;3.684;2022-08-24T00:58:00;21.90;86.20
36710;DHT22;22694;51.040;3.684;2022-08-24T01:00:31;21.90;86.40
36710;DHT22;22694;51.040;3.684;2022-08-24T01:02:59;21.90;86.50
36710;DHT22;22694;51.040;3.684;2022-08-24T01:05:30;21.80;86.60
36710;DHT22;22694;51.040;3.684;2022-08-24T01:07:57;21.80;86.70
36710;DHT22;22694;51.040;3.684;2022-08-24T01:10:28;21.80;86.70
36710;DHT22;22694;51.040;3.684;2022-08-24T01:12:57;21.70;86.60
36710;DHT22;22694;51.040;3.684;2022-08-24T01:15:25;21.70;86.50
36710;DHT22;22694;51.040;3.684;2022-08-24T01:17:51;21.70;86.40
36710;DHT22;22694;51.040;3.684;2022-08-24T01:20:35;21.70;86.50
36710;DHT22;22694;51.040;3.684;2022-08-24T01:23:36;21.70;86.60
36710;DHT22;22694;51.040;3.684;2022-08-24T01:26:05;21.70;86.60
36710;DHT22;22694;51.040;3.684;2022-08-24T01:28:32;21.60;86.60
36710;DHT22;22694;51.040;3.684;2022-08-24T01:30:57;21.60;86.50
36710;DHT22;22694;51.040;3.684;2022-08-24T01:33:29;21.60;86.50
36710;DHT22;22694;51.040;3.684;2022-08-24T01:38:37;21.60;86.50
36710;DHT22;22694;51.040;3.684;2022-08-24T01:41:03;21.60;86.60
36710;DHT22;22694;51.040;3.684;2022-08-24T01:43:29;21.60;86.70
36710;DHT22;22694;51.040;3.684;2022-08-24T01:45:55;21.50;86.60
36710;DHT22;22694;51.040;3.684;2022-08-24T01:48:21;21.50;86.60
36710;DHT22;22694;51.040;3.684;2022-08-24T01:50:46;21.50;86.60
36710;DHT22;22694;51.040;3.684;2022-08-24T01:53:13;21.50;86.60
36710;DHT22;22694;51.040;3.684;2022-08-24T01:55:40;21.50;86.70
36710;DHT22;22694;51.040;3.684;2022-08-24T01:58:06;21.40;86.70
36710;DHT22;22694;51.040;3.684;2022-08-24T02:00:34;21.40;86.70
36710;DHT22;22694;51.040;3.684;2022-08-24T02:03:00;21.40;86.80
36710;DHT22;22694;51.040;3.684;2022-08-24T02:05:27;21.40;86.90
36710;DHT22;22694;51.040;3.684;2022-08-24T02:07:53;21.40;86.90
36710;DHT22;22694;51.040;3.684;2022-08-24T02:10:21;21.30;86.90
36710;DHT22;22694;51.040;3.684;2022-08-24T02:12:47;21.30;87.10
36710;DHT22;22694;51.040;3.684;2022-08-24T02:15:34;21.30;87.10
36710;DHT22;22694;51.040;3.684;2022-08-24T02:18:02;21.30;87.10
36710;DHT22;22694;51.040;3.684;2022-08-24T02:20:29;21.30;87.20
36710;DHT22;22694;51.040;3.684;2022-08-24T02:22:55;21.30;87.40
36710;DHT22;22694;51.040;3.684;2022-08-24T02:25:22;21.30;87.50
36710;DHT22;22694;51.040;3.684;2022-08-24T02:27:48;21.20;87.50
36710;DHT22;22694;51.040;3.684;2022-08-24T02:30:14;21.20;87.60
36710;DHT22;22694;51.040;3.684;2022-08-24T02:32:40;21.20;88.20
36710;DHT22;22694;51.040;3.684;2022-08-24T02:35:06;21.20;87.70
36710;DHT22;22694;51.040;3.684;2022-08-24T02:37:33;21.20;87.70
36710;DHT22;22694;51.040;3.684;2022-08-24T02:39:59;21.20;87.70
36710;DHT22;22694;51.040;3.684;2022-08-24T02:42:24;21.10;87.50
36710;DHT22;22694;51.040;3.684;2022-08-24T02:44:50;21.20;87.40
36710;DHT22;22694;51.040;3.684;2022-08-24T02:47:16;21.10;87.30
36710;DHT22;22694;51.040;3.684;2022-08-24T02:49:42;21.10;87.20
36710;DHT22;22694;51.040;3.684;2022-08-24T02:52:07;21.10;87.20
36710;DHT22;22694;51.040;3.684;2022-08-24T02:54:33;21.10;87.10
36710;DHT22;22694;51.040;3.684;2022-08-24T02:56:59;21.10;87.10
36710;DHT22;22694;51.040;3.684;2022-08-24T02:59:24;21.10;87.20
36710;DHT22;22694;51.040;3.684;2022-08-24T03:01:50;21.10;87.20
36710;DHT22;22694;51.040;3.684;2022-08-24T03:04:16;21.00;87.20
36710;DHT22;22694;51.040;3.684;2022-08-24T03:06:42;21.00;87.20
36710;DHT22;22694;51.040;3.684;2022-08-24T03:09:08;21.00;87.20
36710;DHT22;22694;51.040;3.684;2022-08-24T03:11:34;21.00;87.40
36710;DHT22;22694;51.040;3.684;2022-08-24T03:14:00;21.00;87.30
36710;DHT22;22694;51.040;3.684;2022-08-24T03:16:27;21.00;87.40
36710;DHT22;22694;51.040;3.684;2022-08-24T03:18:53;21.00;87.50
36710;DHT22;22694;51.040;3.684;2022-08-24T03:21:18;21.00;87.50
36710;DHT22;22694;51.040;3.684;2022-08-24T03:23:44;20.90;87.60
36710;DHT22;22694;51.040;3.684;2022-08-24T03:26:10;20.90;87.70
36710;DHT22;22694;51.040;3.684;2022-08-24T03:28:36;20.90;87.70
36710;DHT22;22694;51.040;3.684;2022-08-24T03:31:02;20.90;87.80
36710;DHT22;22694;51.040;3.684;2022-08-24T03:33:28;20.90;87.80
36710;DHT22;22694;51.040;3.684;2022-08-24T03:35:54;20.90;87.80
36710;DHT22;22694;51.040;3.684;2022-08-24T03:38:20;20.90;87.90
36710;DHT22;22694;51.040;3.684;2022-08-24T03:40:46;20.90;88.00
36710;DHT22;22694;51.040;3.684;2022-08-24T03:43:12;20.90;88.00
36710;DHT22;22694;51.040;3.684;2022-08-24T03:45:58;20.90;88.40
36710;DHT22;22694;51.040;3.684;2022-08-24T03:48:25;21.00;88.80
36710;DHT22;22694;51.040;3.684;2022-08-24T03:50:50;21.00;87.90
36710;DHT22;22694;51.040;3.684;2022-08-24T03:53:16;21.00;87.90
36710;DHT22;22694;51.040;3.684;2022-08-24T03:55:42;21.00;87.90
36710;DHT22;22694;51.040;3.684;2022-08-24T03:58:08;20.90;87.80
36710;DHT22;22694;51.040;3.684;2022-08-24T04:00:34;20.90;87.70
36710;DHT22;22694;51.040;3.684;2022-08-24T04:02:59;20.90;87.60
36710;DHT22;22694;51.040;3.684;2022-08-24T04:05:25;20.90;87.50
36710;DHT22;22694;51.040;3.684;2022-08-24T04:07:50;20.90;87.30
36710;DHT22;22694;51.040;3.684;2022-08-24T04:10:17;20.90;87.70
36710;DHT22;22694;51.040;3.684;2022-08-24T04:12:42;20.90;87.00
36710;DHT22;22694;51.040;3.684;2022-08-24T04:15:10;20.90;87.00
36710;DHT22;22694;51.040;3.684;2022-08-24T04:17:36;20.80;86.90
36710;DHT22;22694;51.040;3.684;2022-08-24T04:20:02;20.80;87.00
36710;DHT22;22694;51.040;3.684;2022-08-24T04:22:30;20.80;87.10
36710;DHT22;22694;51.040;3.684;2022-08-24T04:24:56;20.80;87.10
36710;DHT22;22694;51.040;3.684;2022-08-24T04:27:22;20.80;87.10
36710;DHT22;22694;51.040;3.684;2022-08-24T04:29:48;20.80;87.20
36710;DHT22;22694;51.040;3.684;2022-08-24T04:32:13;20.80;87.30
36710;DHT22;22694;51.040;3.684;2022-08-24T04:34:43;20.80;87.30
36710;DHT22;22694;51.040;3.684;2022-08-24T04:37:09;20.70;87.40
36710;DHT22;22694;51.040;3.684;2022-08-24T04:39:34;20.80;87.70
36710;DHT22;22694;51.040;3.684;2022-08-24T04:42:00;20.80;87.90
36710;DHT22;22694;51.040;3.684;2022-08-24T04:44:26;20.70;88.00
36710;DHT22;22694;51.040;3.684;2022-08-24T04:46:52;20.70;88.00
36710;DHT22;22694;51.040;3.684;2022-08-24T04:49:17;20.70;87.90
36710;DHT22;22694;51.040;3.684;2022-08-24T04:51:43;20.70;87.80
36710;DHT22;22694;51.040;3.684;2022-08-24T04:54:08;20.70;87.80
36710;DHT22;22694;51.040;3.684;2022-08-24T04:56:35;20.70;88.40
36710;DHT22;22694;51.040;3.684;2022-08-24T04:59:01;20.70;88.00
36710;DHT22;22694;51.040;3.684;2022-08-24T05:01:28;20.70;87.90
36710;DHT22;22694;51.040;3.684;2022-08-24T05:03:54;20.70;87.80
36710;DHT22;22694;51.040;3.684;2022-08-24T05:06:23;20.70;87.70
36710;DHT22;22694;51.040;3.684;2022-08-24T05:08:50;20.70;87.70
36710;DHT22;22694;51.040;3.684;2022-08-24T05:11:17;20.70;87.90
36710;DHT22;22694;51.040;3.684;2022-08-24T05:13:43;20.70;88.10
36710;DHT22;22694;51.040;3.684;2022-08-24T05:16:12;20.70;88.20
36710;DHT22;22694;51.040;3.684;2022-08-24T05:18:38;20.70;88.20
36710;DHT22;22694;51.040;3.684;2022-08-24T05:21:10;20.70;88.40
36710;DHT22;22694;51.040;3.684;2022-08-24T05:23:36;20.60;88.40
36710;DHT22;22694;51.040;3.684;2022-08-24T05:26:07;20.60;88.40
36710;DHT22;22694;51.040;3.684;2022-08-24T05:28:33;20.60;88.40
36710;DHT22;22694;51.040;3.684;2022-08-24T05:31:11;20.60;88.40
36710;DHT22;22694;51.040;3.684;2022-08-24T05:33:37;20.60;88.50
36710;DHT22;22694;51.040;3.684;2022-08-24T05:36:05;20.60;88.60
36710;DHT22;22694;51.040;3.684;2022-08-24T05:38:31;20.60;88.60
36710;DHT22;22694;51.040;3.684;2022-08-24T05:41:02;20.60;88.80
36710;DHT22;22694;51.040;3.684;2022-08-24T05:43:28;20.60;88.90
36710;DHT22;22694;51.040;3.684;2022-08-24T05:45:54;20.60;89.00
36710;DHT22;22694;51.040;3.684;2022-08-24T05:48:20;20.60;89.10
36710;DHT22;22694;51.040;3.684;2022-08-24T05:50:52;20.60;89.20
36710;DHT22;22694;51.040;3.684;2022-08-24T05:53:18;20.70;89.60
36710;DHT22;22694;51.040;3.684;2022-08-24T05:55:44;20.70;89.40
36710;DHT22;22694;51.040;3.684;2022-08-24T05:58:09;20.80;89.00
36710;DHT22;22694;51.040;3.684;2022-08-24T06:00:36;20.80;89.40
36710;DHT22;22694;51.040;3.684;2022-08-24T06:03:02;20.70;88.60
36710;DHT22;22694;51.040;3.684;2022-08-24T06:05:27;20.70;88.50
36710;DHT22;22694;51.040;3.684;2022-08-24T06:07:53;20.70;88.70
36710;DHT22;22694;51.040;3.684;2022-08-24T06:10:19;20.80;89.30
36710;DHT22;22694;51.040;3.684;2022-08-24T06:12:45;20.90;89.60
36710;DHT22;22694;51.040;3.684;2022-08-24T06:15:11;21.00;89.70
36710;DHT22;22694;51.040;3.684;2022-08-24T06:17:38;21.00;89.60
36710;DHT22;22694;51.040;3.684;2022-08-24T06:20:04;21.10;89.60
36710;DHT22;22694;51.040;3.684;2022-08-24T06:22:30;21.10;89.60
36710;DHT22;22694;51.040;3.684;2022-08-24T06:24:55;21.10;89.60
36710;DHT22;22694;51.040;3.684;2022-08-24T06:27:39;21.20;89.60
36710;DHT22;22694;51.040;3.684;2022-08-24T06:30:07;21.20;89.80
36710;DHT22;22694;51.040;3.684;2022-08-24T06:32:35;21.30;89.80
36710;DHT22;22694;51.040;3.684;2022-08-24T06:35:01;21.40;89.70
36710;DHT22;22694;51.040;3.684;2022-08-24T06:37:27;21.40;90.00
36710;DHT22;22694;51.040;3.684;2022-08-24T06:39:54;21.30;90.10
36710;DHT22;22694;51.040;3.684;2022-08-24T06:42:20;21.30;90.20
36710;DHT22;22694;51.040;3.684;2022-08-24T06:44:46;21.30;90.60
36710;DHT22;22694;51.040;3.684;2022-08-24T06:47:12;21.30;90.50
36710;DHT22;22694;51.040;3.684;2022-08-24T06:49:37;21.40;90.60
36710;DHT22;22694;51.040;3.684;2022-08-24T06:52:04;21.30;90.70
36710;DHT22;22694;51.040;3.684;2022-08-24T06:54:30;21.40;90.80
36710;DHT22;22694;51.040;3.684;2022-08-24T06:56:56;21.40;90.80
36710;DHT22;22694;51.040;3.684;2022-08-24T06:59:24;21.40;90.80
36710;DHT22;22694;51.040;3.684;2022-08-24T07:01:53;21.40;90.80
36710;DHT22;22694;51.040;3.684;2022-08-24T07:04:21;21.40;91.00
36710;DHT22;22694;51.040;3.684;2022-08-24T07:06:46;21.40;91.10
36710;DHT22;22694;51.040;3.684;2022-08-24T07:09:12;21.40;91.20
36710;DHT22;22694;51.040;3.684;2022-08-24T07:11:38;21.40;91.30
36710;DHT22;22694;51.040;3.684;2022-08-24T07:14:04;21.40;91.40
36710;DHT22;22694;51.040;3.684;2022-08-24T07:16:31;21.40;91.70
36710;DHT22;22694;51.040;3.684;2022-08-24T07:18:56;21.40;91.50
36710;DHT22;22694;51.040;3.684;2022-08-24T07:21:22;21.50;91.50
36710;DHT22;22694;51.040;3.684;2022-08-24T07:23:49;21.60;91.50
36710;DHT22;22694;51.040;3.684;2022-08-24T07:26:18;21.60;91.60
36710;DHT22;22694;51.040;3.684;2022-08-24T07:28:44;21.60;91.60
36710;DHT22;22694;51.040;3.684;2022-08-24T07:31:10;21.70;91.70
36710;DHT22;22694;51.040;3.684;2022-08-24T07:33:38;21.70;91.60
36710;DHT22;22694;51.040;3.684;2022-08-24T07:36:04;21.70;91.50
36710;DHT22;22694;51.040;3.684;2022-08-24T07:38:30;21.80;91.50
36710;DHT22;22694;51.040;3.684;2022-08-24T07:40:58;21.90;91.70
36710;DHT22;22694;51.040;3.684;2022-08-24T07:43:24;21.90;91.80
36710;DHT22;22694;51.040;3.684;2022-08-24T07:45:50;21.90;92.00
36710;DHT22;22694;51.040;3.684;2022-08-24T07:48:16;22.00;92.20
36710;DHT22;22694;51.040;3.684;2022-08-24T07:50:42;22.10;92.80
36710;DHT22;22694;51.040;3.684;2022-08-24T07:53:09;22.20;91.30
36710;DHT22;22694;51.040;3.684;2022-08-24T07:55:35;22.20;91.00
36710;DHT22;22694;51.040;3.684;2022-08-24T07:58:01;22.30;90.60
36710;DHT22;22694;51.040;3.684;2022-08-24T08:00:27;22.40;90.40
36710;DHT22;22694;51.040;3.684;2022-08-24T08:02:52;22.50;90.20
36710;DHT22;22694;51.040;3.684;2022-08-24T08:05:20;22.50;90.30
36710;DHT22;22694;51.040;3.684;2022-08-24T08:07:47;22.50;90.50
36710;DHT22;22694;51.040;3.684;2022-08-24T08:10:13;22.60;91.10
36710;DHT22;22694;51.040;3.684;2022-08-24T08:12:39;22.70;91.10
36710;DHT22;22694;51.040;3.684;2022-08-24T08:15:07;22.80;91.50
36710;DHT22;22694;51.040;3.684;2022-08-24T08:17:37;22.90;90.70
36710;DHT22;22694;51.040;3.684;2022-08-24T08:20:05;23.00;90.20
36710;DHT22;22694;51.040;3.684;2022-08-24T08:22:31;23.00;89.90
36710;DHT22;22694;51.040;3.684;2022-08-24T08:25:15;23.00;90.20
36710;DHT22;22694;51.040;3.684;2022-08-24T08:27:43;23.10;90.40
36710;DHT22;22694;51.040;3.684;2022-08-24T08:30:09;23.30;90.40
36710;DHT22;22694;51.040;3.684;2022-08-24T08:32:35;23.40;90.10
36710;DHT22;22694;51.040;3.684;2022-08-24T08:35:01;23.40;89.50
36710;DHT22;22694;51.040;3.684;2022-08-24T08:37:27;23.50;90.50
36710;DHT22;22694;51.040;3.684;2022-08-24T08:39:53;23.60;91.00
36710;DHT22;22694;51.040;3.684;2022-08-24T08:56:25;24.00;87.20
36710;DHT22;22694;51.040;3.684;2022-08-24T08:59:08;24.00;87.40
36710;DHT22;22694;51.040;3.684;2022-08-24T09:18:39;23.40;87.10
36710;DHT22;22694;51.040;3.684;2022-08-24T09:26:41;23.40;87.80
36710;DHT22;22694;51.040;3.684;2022-08-24T09:29:16;23.70;85.30
36710;DHT22;22694;51.040;3.684;2022-08-24T09:32:15;23.80;83.50
36710;DHT22;22694;51.040;3.684;2022-08-24T09:34:51;23.80;85.40
36710;DHT22;22694;51.040;3.684;2022-08-24T10:00:17;23.20;88.20
36710;DHT22;22694;51.040;3.684;2022-08-24T10:02:51;23.20;88.40
36710;DHT22;22694;51.040;3.684;2022-08-24T10:08:54;23.20;89.00
36710;DHT22;22694;51.040;3.684;2022-08-24T10:14:18;23.30;89.50
36710;DHT22;22694;51.040;3.684;2022-08-24T10:19:44;23.30;89.00
36710;DHT22;22694;51.040;3.684;2022-08-24T10:25:08;23.40;89.30
36710;DHT22;22694;51.040;3.684;2022-08-24T10:33:23;23.70;89.70
36710;DHT22;22694;51.040;3.684;2022-08-24T10:38:50;23.70;89.60
36710;DHT22;22694;51.040;3.684;2022-08-24T10:47:00;24.00;90.00
36710;DHT22;22694;51.040;3.684;2022-08-24T10:49:42;24.10;90.00
36710;DHT22;22694;51.040;3.684;2022-08-24T10:54:37;24.30;90.00
36710;DHT22;22694;51.040;3.684;2022-08-24T10:57:07;24.40;90.00
36710;DHT22;22694;51.040;3.684;2022-08-24T11:00:03;24.40;90.00
36710;DHT22;22694;51.040;3.684;2022-08-24T11:02:36;24.60;90.00
36710;DHT22;22694;51.040;3.684;2022-08-24T11:05:28;24.60;89.90
36710;DHT22;22694;51.040;3.684;2022-08-24T11:08:02;24.70;89.80
36710;DHT22;22694;51.040;3.684;2022-08-24T11:10:33;24.80;89.70
36710;DHT22;22694;51.040;3.684;2022-08-24T11:13:22;24.90;89.70
36710;DHT22;22694;51.040;3.684;2022-08-24T11:15:53;25.00;89.60
36710;DHT22;22694;51.040;3.684;2022-08-24T11:18:19;25.10;89.60
36710;DHT22;22694;51.040;3.684;2022-08-24T11:20:47;25.20;89.50
36710;DHT22;22694;51.040;3.684;2022-08-24T11:26:00;25.30;89.30
36710;DHT22;22694;51.040;3.684;2022-08-24T11:29:05;25.50;88.80
36710;DHT22;22694;51.040;3.684;2022-08-24T11:31:40;25.50;88.30
36710;DHT22;22694;51.040;3.684;2022-08-24T11:34:14;25.60;87.90
36710;DHT22;22694;51.040;3.684;2022-08-24T11:36:40;25.70;87.30
36710;DHT22;22694;51.040;3.684;2022-08-24T11:39:28;25.80;87.40
36710;DHT22;22694;51.040;3.684;2022-08-24T11:42:05;25.90;87.30
36710;DHT22;22694;51.040;3.684;2022-08-24T11:44:44;26.00;87.50
36710;DHT22;22694;51.040;3.684;2022-08-24T11:50:26;26.20;86.30
36710;DHT22;22694;51.040;3.684;2022-08-24T11:59:09;26.60;85.50
36710;DHT22;22694;51.040;3.684;2022-08-24T12:01:52;26.60;85.30
36710;DHT22;22694;51.040;3.684;2022-08-24T12:04:38;26.70;85.30
36710;DHT22;22694;51.040;3.684;2022-08-24T12:07:19;26.80;85.30
36710;DHT22;22694;51.040;3.684;2022-08-24T12:09:58;26.90;85.00
36710;DHT22;22694;51.040;3.684;2022-08-24T12:18:10;27.00;84.50
36710;DHT22;22694;51.040;3.684;2022-08-24T12:20:44;27.10;84.40
36710;DHT22;22694;51.040;3.684;2022-08-24T12:26:03;27.10;84.20
36710;DHT22;22694;51.040;3.684;2022-08-24T12:28:41;27.20;83.10
36710;DHT22;22694;51.040;3.684;2022-08-24T12:31:15;27.30;79.30
36710;DHT22;22694;51.040;3.684;2022-08-24T12:33:45;27.30;80.80
36710;DHT22;22694;51.040;3.684;2022-08-24T12:36:25;27.30;81.90
36710;DHT22;22694;51.040;3.684;2022-08-24T12:39:10;27.30;82.50
36710;DHT22;22694;51.040;3.684;2022-08-24T12:41:54;27.40;82.80
36710;DHT22;22694;51.040;3.684;2022-08-24T12:44:25;27.40;82.90
36710;DHT22;22694;51.040;3.684;2022-08-24T12:46:53;27.40;83.00
36710;DHT22;22694;51.040;3.684;2022-08-24T12:49:37;27.40;82.20
36710;DHT22;22694;51.040;3.684;2022-08-24T12:52:40;27.50;81.80
36710;DHT22;22694;51.040;3.684;2022-08-24T12:55:21;27.60;82.40
36710;DHT22;22694;51.040;3.684;2022-08-24T12:58:20;27.60;82.40
36710;DHT22;22694;51.040;3.684;2022-08-24T13:00:49;27.70;82.40
36710;DHT22;22694;51.040;3.684;2022-08-24T13:03:40;27.80;83.00
36710;DHT22;22694;51.040;3.684;2022-08-24T13:06:27;27.80;81.90
36710;DHT22;22694;51.040;3.684;2022-08-24T13:09:16;27.80;81.50
36710;DHT22;22694;51.040;3.684;2022-08-24T13:11:51;27.70;81.30
36710;DHT22;22694;51.040;3.684;2022-08-24T13:14:25;27.70;81.40
36710;DHT22;22694;51.040;3.684;2022-08-24T13:26:58;27.60;80.50
36710;DHT22;22694;51.040;3.684;2022-08-24T13:29:47;27.70;80.40
36710;DHT22;22694;51.040;3.684;2022-08-24T13:32:30;27.60;80.30
36710;DHT22;22694;51.040;3.684;2022-08-24T13:34:57;27.60;80.20
36710;DHT22;22694;51.040;3.684;2022-08-24T13:37:26;27.50;80.20
36710;DHT22;22694;51.040;3.684;2022-08-24T13:45:20;27.50;80.10
36710;DHT22;22694;51.040;3.684;2022-08-24T13:53:31;27.40;79.50
36710;DHT22;22694;51.040;3.684;2022-08-24T14:23:43;27.40;81.90
36710;DHT22;22694;51.040;3.684;2022-08-24T14:47:57;27.40;80.70
36710;DHT22;22694;51.040;3.684;2022-08-24T14:53:32;27.40;80.70
36710;DHT22;22694;51.040;3.684;2022-08-24T14:59:08;27.30;80.70
36710;DHT22;22694;51.040;3.684;2022-08-24T15:01:45;27.30;80.80
36710;DHT22;22694;51.040;3.684;2022-08-24T15:04:23;27.40;80.80
36710;DHT22;22694;51.040;3.684;2022-08-24T15:06:55;27.30;80.60
36710;DHT22;22694;51.040;3.684;2022-08-24T15:09:24;27.40;75.70
36710;DHT22;22694;51.040;3.684;2022-08-24T15:11:55;27.40;76.80
36710;DHT22;22694;51.040;3.684;2022-08-24T15:14:46;27.40;78.60
36710;DHT22;22694;51.040;3.684;2022-08-24T15:17:20;27.40;79.30
36710;DHT22;22694;51.040;3.684;2022-08-24T15:19:58;27.40;79.60
36710;DHT22;22694;51.040;3.684;2022-08-24T15:22:44;27.40;79.90
36710;DHT22;22694;51.040;3.684;2022-08-24T15:28:26;27.60;74.40
36710;DHT22;22694;51.040;3.684;2022-08-24T15:33:28;27.70;78.40
36710;DHT22;22694;51.040;3.684;2022-08-24T15:36:14;27.70;78.80
36710;DHT22;22694;51.040;3.684;2022-08-24T15:38:40;27.70;79.10
36710;DHT22;22694;51.040;3.684;2022-08-24T15:43:35;27.70;79.60
36710;DHT22;22694;51.040;3.684;2022-08-24T15:46:03;27.70;79.70
36710;DHT22;22694;51.040;3.684;2022-08-24T15:48:29;27.80;79.50
36710;DHT22;22694;51.040;3.684;2022-08-24T15:50:56;27.70;79.20
36710;DHT22;22694;51.040;3.684;2022-08-24T15:55:55;27.80;77.90
36710;DHT22;22694;51.040;3.684;2022-08-24T15:58:29;27.80;78.00
36710;DHT22;22694;51.040;3.684;2022-08-24T16:03:52;27.80;79.20
36710;DHT22;22694;51.040;3.684;2022-08-24T16:14:31;27.70;79.40
36710;DHT22;22694;51.040;3.684;2022-08-24T16:16:59;27.70;79.40
36710;DHT22;22694;51.040;3.684;2022-08-24T16:19:32;27.70;79.40
36710;DHT22;22694;51.040;3.684;2022-08-24T16:22:04;27.70;79.40
36710;DHT22;22694;51.040;3.684;2022-08-24T16:24:36;27.70;79.50
36710;DHT22;22694;51.040;3.684;2022-08-24T16:29:48;27.70;79.40
36710;DHT22;22694;51.040;3.684;2022-08-24T16:34:54;27.60;79.40
36710;DHT22;22694;51.040;3.684;2022-08-24T16:37:21;27.60;79.60
36710;DHT22;22694;51.040;3.684;2022-08-24T16:39:47;27.50;79.60
36710;DHT22;22694;51.040;3.684;2022-08-24T16:42:26;27.50;79.80
36710;DHT22;22694;51.040;3.684;2022-08-24T16:44:52;27.40;79.70
36710;DHT22;22694;51.040;3.684;2022-08-24T16:47:19;27.40;79.80
36710;DHT22;22694;51.040;3.684;2022-08-24T16:49:45;27.40;79.90
36710;DHT22;22694;51.040;3.684;2022-08-24T16:52:12;27.30;79.80
36710;DHT22;22694;51.040;3.684;2022-08-24T16:54:37;27.30;79.80
36710;DHT22;22694;51.040;3.684;2022-08-24T16:57:24;27.30;79.90
36710;DHT22;22694;51.040;3.684;2022-08-24T16:59:52;27.30;79.90
36710;DHT22;22694;51.040;3.684;2022-08-24T17:02:19;27.20;80.20
36710;DHT22;22694;51.040;3.684;2022-08-24T17:04:47;27.20;80.50
36710;DHT22;22694;51.040;3.684;2022-08-24T17:07:24;27.20;79.90
36710;DHT22;22694;51.040;3.684;2022-08-24T17:09:51;27.20;79.90
36710;DHT22;22694;51.040;3.684;2022-08-24T17:12:17;27.10;79.70
36710;DHT22;22694;51.040;3.684;2022-08-24T17:14:43;27.10;79.50
36710;DHT22;22694;51.040;3.684;2022-08-24T17:17:12;27.10;79.40
36710;DHT22;22694;51.040;3.684;2022-08-24T17:19:39;27.10;79.10
36710;DHT22;22694;51.040;3.684;2022-08-24T17:22:05;27.00;78.90
36710;DHT22;22694;51.040;3.684;2022-08-24T17:24:32;27.00;78.90
36710;DHT22;22694;51.040;3.684;2022-08-24T17:26:59;27.00;79.00
36710;DHT22;22694;51.040;3.684;2022-08-24T17:29:25;26.90;79.00
36710;DHT22;22694;51.040;3.684;2022-08-24T17:31:52;26.90;79.00
36710;DHT22;22694;51.040;3.684;2022-08-24T17:34:20;26.90;78.80
36710;DHT22;22694;51.040;3.684;2022-08-24T17:36:50;26.90;78.90
36710;DHT22;22694;51.040;3.684;2022-08-24T17:39:17;26.80;78.90
36710;DHT22;22694;51.040;3.684;2022-08-24T17:41:43;26.80;79.30
36710;DHT22;22694;51.040;3.684;2022-08-24T17:44:10;26.80;79.40
36710;DHT22;22694;51.040;3.684;2022-08-24T17:46:38;26.70;79.30
36710;DHT22;22694;51.040;3.684;2022-08-24T17:49:06;26.70;79.30
36710;DHT22;22694;51.040;3.684;2022-08-24T17:51:32;26.70;79.30
36710;DHT22;22694;51.040;3.684;2022-08-24T17:53:58;26.70;78.90
36710;DHT22;22694;51.040;3.684;2022-08-24T17:56:28;26.60;78.50
36710;DHT22;22694;51.040;3.684;2022-08-24T17:58:55;26.60;77.60
36710;DHT22;22694;51.040;3.684;2022-08-24T18:01:39;26.60;77.80
36710;DHT22;22694;51.040;3.684;2022-08-24T18:04:04;26.50;77.80
36710;DHT22;22694;51.040;3.684;2022-08-24T18:06:31;26.50;77.80
36710;DHT22;22694;51.040;3.684;2022-08-24T18:09:01;26.40;78.00
36710;DHT22;22694;51.040;3.684;2022-08-24T18:11:27;26.40;78.00
36710;DHT22;22694;51.040;3.684;2022-08-24T18:13:53;26.40;78.00
36710;DHT22;22694;51.040;3.684;2022-08-24T18:16:22;26.40;78.20
36710;DHT22;22694;51.040;3.684;2022-08-24T18:18:50;26.30;78.00
36710;DHT22;22694;51.040;3.684;2022-08-24T18:21:16;26.30;78.00
36710;DHT22;22694;51.040;3.684;2022-08-24T18:23:42;26.20;77.70
36710;DHT22;22694;51.040;3.684;2022-08-24T18:26:08;26.20;77.70
36710;DHT22;22694;51.040;3.684;2022-08-24T18:28:34;26.20;77.60
36710;DHT22;22694;51.040;3.684;2022-08-24T18:31:01;26.20;77.70
36710;DHT22;22694;51.040;3.684;2022-08-24T18:33:27;26.10;77.90
36710;DHT22;22694;51.040;3.684;2022-08-24T18:35:52;26.10;77.90
36710;DHT22;22694;51.040;3.684;2022-08-24T18:38:18;26.10;77.90
36710;DHT22;22694;51.040;3.684;2022-08-24T18:40:44;26.00;77.40
36710;DHT22;22694;51.040;3.684;2022-08-24T18:43:11;26.00;77.60
36710;DHT22;22694;51.040;3.684;2022-08-24T18:45:39;25.90;77.40
36710;DHT22;22694;51.040;3.684;2022-08-24T18:48:05;25.90;77.40
36710;DHT22;22694;51.040;3.684;2022-08-24T18:50:31;25.80;77.60
36710;DHT22;22694;51.040;3.684;2022-08-24T18:52:58;25.80;77.70
36710;DHT22;22694;51.040;3.684;2022-08-24T18:55:24;25.80;78.50
36710;DHT22;22694;51.040;3.684;2022-08-24T18:57:51;25.80;78.10
36710;DHT22;22694;51.040;3.684;2022-08-24T19:00:17;25.70;78.30
36710;DHT22;22694;51.040;3.684;2022-08-24T19:02:43;25.70;78.40
36710;DHT22;22694;51.040;3.684;2022-08-24T19:05:15;25.70;78.50
36710;DHT22;22694;51.040;3.684;2022-08-24T19:07:46;25.60;78.60
36710;DHT22;22694;51.040;3.684;2022-08-24T19:10:15;25.60;78.60
36710;DHT22;22694;51.040;3.684;2022-08-24T19:12:47;25.60;78.60
36710;DHT22;22694;51.040;3.684;2022-08-24T19:15:17;25.50;78.50
36710;DHT22;22694;51.040;3.684;2022-08-24T19:17:43;25.50;78.50
36710;DHT22;22694;51.040;3.684;2022-08-24T19:20:10;25.50;78.60
36710;DHT22;22694;51.040;3.684;2022-08-24T19:22:37;25.40;78.50